sensor_id;sensor_type;location;lat;lon;timestamp;pressure;altitude;pressure_sealevel;temperature;humidity
82256;BME280;74246;42.044;-91.642;2023-11-21T00:00:05;98995.41;;;12.21;59.59
82256;BME280;74246;42.044;-91.642;2023-11-21T00:00:45;99007.50;;;11.55;61.78
82256;BME280;74246;42.044;-91.642;2023-11-21T00:01:18;98985.88;;;11.66;61.96
82256;BME280;74246;42.044;-91.642;2023-11-21T00:01:50;98998.16;;;12.50;60.06
82256;BME280;74246;42.044;-91.642;2023-11-21T00:02:26;98879.88;;;12.24;58.69
82256;BME280;74246;42.044;-91.642;2023-11-21T00:02:59;98998.91;;;13.22;57.52
82256;BME280;74246;42.044;-91.642;2023-11-21T00:03:32;99003.81;;;13.30;56.21
82256;BME280;74246;42.044;-91.642;2023-11-21T00:04:04;99003.72;;;12.42;58.98
82256;BME280;74246;42.044;-91.642;2023-11-21T00:04:39;98966.09;;;12.67;58.83
82256;BME280;74246;42.044;-91.642;2023-11-21T00:05:13;98993.97;;;12.85;58.10
82256;BME280;74246;42.044;-91.642;2023-11-21T00:05:46;99005.66;;;12.58;58.23
82256;BME280;74246;42.044;-91.642;2023-11-21T00:06:18;99007.66;;;11.60;62.00
82256;BME280;74246;42.044;-91.642;2023-11-21T00:06:52;99002.47;;;12.56;61.69
82256;BME280;74246;42.044;-91.642;2023-11-21T00:07:25;99005.91;;;13.04;58.44
82256;BME280;74246;42.044;-91.642;2023-11-21T00:07:57;99003.25;;;13.16;57.39
82256;BME280;74246;42.044;-91.642;2023-11-21T00:08:30;99004.75;;;13.12;57.06
82256;BME280;74246;42.044;-91.642;2023-11-21T00:09:02;98998.50;;;13.13;57.09
82256;BME280;74246;42.044;-91.642;2023-11-21T00:09:35;99008.66;;;12.86;57.11
82256;BME280;74246;42.044;-91.642;2023-11-21T00:10:10;99012.63;;;12.65;58.98
82256;BME280;74246;42.044;-91.642;2023-11-21T00:10:43;99002.34;;;13.10;57.33
82256;BME280;74246;42.044;-91.642;2023-11-21T00:11:16;98998.63;;;12.71;59.11
82256;BME280;74246;42.044;-91.642;2023-11-21T00:11:49;99019.81;;;11.85;60.79
82256;BME280;74246;42.044;-91.642;2023-11-21T00:12:21;99019.97;;;11.72;62.09
82256;BME280;74246;42.044;-91.642;2023-11-21T00:12:54;99019.81;;;11.66;63.15
82256;BME280;74246;42.044;-91.642;2023-11-21T00:13:27;99020.16;;;11.21;63.76
82256;BME280;74246;42.044;-91.642;2023-11-21T00:14:00;99015.97;;;12.18;63.46
82256;BME280;74246;42.044;-91.642;2023-11-21T00:14:32;98876.75;;;10.89;61.43
82256;BME280;74246;42.044;-91.642;2023-11-21T00:15:05;99023.25;;;12.16;61.75
82256;BME280;74246;42.044;-91.642;2023-11-21T00:15:38;99011.16;;;12.80;59.89
82256;BME280;74246;42.044;-91.642;2023-11-21T00:16:10;99010.34;;;12.68;59.04
82256;BME280;74246;42.044;-91.642;2023-11-21T00:16:43;99010.91;;;12.47;58.15
82256;BME280;74246;42.044;-91.642;2023-11-21T00:17:15;99001.53;;;11.85;60.77
82256;BME280;74246;42.044;-91.642;2023-11-21T00:17:48;99017.50;;;11.77;62.12
82256;BME280;74246;42.044;-91.642;2023-11-21T00:18:21;99020.94;;;12.08;62.41
82256;BME280;74246;42.044;-91.642;2023-11-21T00:18:54;99025.81;;;11.55;62.08
82256;BME280;74246;42.044;-91.642;2023-11-21T00:19:26;99030.75;;;11.26;63.68
82256;BME280;74246;42.044;-91.642;2023-11-21T00:19:59;99021.84;;;10.90;65.91
82256;BME280;74246;42.044;-91.642;2023-11-21T00:20:32;99024.47;;;11.09;64.70
82256;BME280;74246;42.044;-91.642;2023-11-21T00:21:04;99016.94;;;10.25;66.46
82256;BME280;74246;42.044;-91.642;2023-11-21T00:21:37;99017.28;;;10.04;67.79
82256;BME280;74246;42.044;-91.642;2023-11-21T00:22:09;99026.22;;;10.14;68.18
82256;BME280;74246;42.044;-91.642;2023-11-21T00:22:42;99017.31;;;10.61;68.71
82256;BME280;74246;42.044;-91.642;2023-11-21T00:23:15;99012.88;;;10.86;66.75
82256;BME280;74246;42.044;-91.642;2023-11-21T00:23:47;99012.69;;;11.06;64.97
82256;BME280;74246;42.044;-91.642;2023-11-21T00:24:20;99012.03;;;11.48;63.10
82256;BME280;74246;42.044;-91.642;2023-11-21T00:24:53;99021.91;;;10.84;65.03
82256;BME280;74246;42.044;-91.642;2023-11-21T00:25:25;98993.97;;;11.09;64.79
82256;BME280;74246;42.044;-91.642;2023-11-21T00:25:58;99013.44;;;11.62;63.31
82256;BME280;74246;42.044;-91.642;2023-11-21T00:26:30;99003.00;;;11.62;62.87
82256;BME280;74246;42.044;-91.642;2023-11-21T00:27:08;99008.28;;;12.04;63.48
82256;BME280;74246;42.044;-91.642;2023-11-21T00:27:41;98999.91;;;11.84;61.45
82256;BME280;74246;42.044;-91.642;2023-11-21T00:28:14;99018.72;;;12.23;61.54
82256;BME280;74246;42.044;-91.642;2023-11-21T00:28:47;99017.53;;;12.07;60.43
82256;BME280;74246;42.044;-91.642;2023-11-21T00:29:20;99011.50;;;12.07;60.50
82256;BME280;74246;42.044;-91.642;2023-11-21T00:29:52;98999.56;;;12.11;60.53
82256;BME280;74246;42.044;-91.642;2023-11-21T00:30:25;99004.06;;;12.34;60.53
82256;BME280;74246;42.044;-91.642;2023-11-21T00:30:58;98994.63;;;12.45;59.17
82256;BME280;74246;42.044;-91.642;2023-11-21T00:31:30;99012.00;;;12.27;60.80
82256;BME280;74246;42.044;-91.642;2023-11-21T00:32:04;99008.28;;;12.04;60.23
82256;BME280;74246;42.044;-91.642;2023-11-21T00:32:37;98989.19;;;12.46;58.73
82256;BME280;74246;42.044;-91.642;2023-11-21T00:33:10;99005.47;;;12.06;59.67
82256;BME280;74246;42.044;-91.642;2023-11-21T00:33:43;99007.56;;;12.16;60.03
82256;BME280;74246;42.044;-91.642;2023-11-21T00:34:15;99011.56;;;12.30;59.71
82256;BME280;74246;42.044;-91.642;2023-11-21T00:34:48;98876.53;;;10.73;59.94
82256;BME280;74246;42.044;-91.642;2023-11-21T00:35:21;99007.00;;;10.91;61.72
82256;BME280;74246;42.044;-91.642;2023-11-21T00:35:53;99011.63;;;10.89;62.56
82256;BME280;74246;42.044;-91.642;2023-11-21T00:36:26;99007.47;;;9.99;66.06
82256;BME280;74246;42.044;-91.642;2023-11-21T00:37:00;98946.91;;;10.04;65.88
82256;BME280;74246;42.044;-91.642;2023-11-21T00:37:32;99007.19;;;11.15;64.56
82256;BME280;74246;42.044;-91.642;2023-11-21T00:38:05;99009.34;;;10.56;64.55
82256;BME280;74246;42.044;-91.642;2023-11-21T00:38:38;99006.50;;;10.82;65.60
82256;BME280;74246;42.044;-91.642;2023-11-21T00:39:13;99008.03;;;11.08;64.32
82256;BME280;74246;42.044;-91.642;2023-11-21T00:39:46;99010.88;;;11.44;63.14
82256;BME280;74246;42.044;-91.642;2023-11-21T00:40:18;98992.16;;;11.47;62.01
82256;BME280;74246;42.044;-91.642;2023-11-21T00:40:54;99003.28;;;11.73;61.50
82256;BME280;74246;42.044;-91.642;2023-11-21T00:41:28;99001.63;;;12.20;60.11
82256;BME280;74246;42.044;-91.642;2023-11-21T00:42:01;98993.38;;;11.93;60.39
82256;BME280;74246;42.044;-91.642;2023-11-21T00:42:33;99006.38;;;11.14;63.41
82256;BME280;74246;42.044;-91.642;2023-11-21T00:43:06;99000.72;;;11.17;63.67
82256;BME280;74246;42.044;-91.642;2023-11-21T00:43:38;98993.22;;;11.58;62.16
82256;BME280;74246;42.044;-91.642;2023-11-21T00:44:11;98999.75;;;11.97;61.03
82256;BME280;74246;42.044;-91.642;2023-11-21T00:44:44;98981.28;;;12.11;60.47
82256;BME280;74246;42.044;-91.642;2023-11-21T00:45:16;99009.38;;;11.66;60.92
82256;BME280;74246;42.044;-91.642;2023-11-21T00:45:49;98972.16;;;11.22;61.34
82256;BME280;74246;42.044;-91.642;2023-11-21T00:46:21;98999.84;;;10.36;64.82
82256;BME280;74246;42.044;-91.642;2023-11-21T00:46:54;98994.97;;;10.71;65.43
82256;BME280;74246;42.044;-91.642;2023-11-21T00:47:26;98998.03;;;10.62;65.22
82256;BME280;74246;42.044;-91.642;2023-11-21T00:47:59;99008.09;;;11.02;65.49
82256;BME280;74246;42.044;-91.642;2023-11-21T00:48:32;98877.56;;;10.90;63.63
82256;BME280;74246;42.044;-91.642;2023-11-21T00:49:04;99006.19;;;11.83;61.75
82256;BME280;74246;42.044;-91.642;2023-11-21T00:49:37;99002.50;;;12.02;61.12
82256;BME280;74246;42.044;-91.642;2023-11-21T00:50:11;99001.00;;;11.95;60.49
82256;BME280;74246;42.044;-91.642;2023-11-21T00:50:44;98989.53;;;11.77;59.95
82256;BME280;74246;42.044;-91.642;2023-11-21T00:51:17;98995.31;;;11.67;61.32
82256;BME280;74246;42.044;-91.642;2023-11-21T00:51:49;99006.19;;;11.83;61.16
82256;BME280;74246;42.044;-91.642;2023-11-21T00:52:22;98999.25;;;11.58;60.95
82256;BME280;74246;42.044;-91.642;2023-11-21T00:52:54;98990.22;;;11.73;60.85
82256;BME280;74246;42.044;-91.642;2023-11-21T00:53:27;99008.25;;;11.07;62.08
82256;BME280;74246;42.044;-91.642;2023-11-21T00:54:00;98882.16;;;10.07;63.60
82256;BME280;74246;42.044;-91.642;2023-11-21T00:54:33;98997.66;;;10.58;65.13
82256;BME280;74246;42.044;-91.642;2023-11-21T00:55:06;99004.75;;;10.95;64.06
82256;BME280;74246;42.044;-91.642;2023-11-21T00:55:39;98999.78;;;11.30;63.73
82256;BME280;74246;42.044;-91.642;2023-11-21T00:56:12;98936.66;;;10.09;65.06
82256;BME280;74246;42.044;-91.642;2023-11-21T00:56:45;98995.25;;;10.57;64.85
82256;BME280;74246;42.044;-91.642;2023-11-21T00:57:19;98991.34;;;10.91;64.26
82256;BME280;74246;42.044;-91.642;2023-11-21T00:57:57;99001.47;;;10.30;65.88
82256;BME280;74246;42.044;-91.642;2023-11-21T00:58:50;98997.94;;;10.50;67.01
82256;BME280;74246;42.044;-91.642;2023-11-21T00:59:24;98996.00;;;10.64;64.89
82256;BME280;74246;42.044;-91.642;2023-11-21T00:59:57;98984.91;;;11.12;64.20
82256;BME280;74246;42.044;-91.642;2023-11-21T01:00:29;98997.41;;;10.66;64.48
82256;BME280;74246;42.044;-91.642;2023-11-21T01:01:02;98998.44;;;10.59;65.73
82256;BME280;74246;42.044;-91.642;2023-11-21T01:01:35;98998.22;;;10.85;64.61
82256;BME280;74246;42.044;-91.642;2023-11-21T01:02:10;98991.16;;;10.67;65.03
82256;BME280;74246;42.044;-91.642;2023-11-21T01:02:46;98991.38;;;11.09;64.30
82256;BME280;74246;42.044;-91.642;2023-11-21T01:03:20;98991.66;;;11.38;62.66
82256;BME280;74246;42.044;-91.642;2023-11-21T01:03:52;98974.75;;;11.71;61.08
82256;BME280;74246;42.044;-91.642;2023-11-21T01:04:26;98990.19;;;11.42;60.69
82256;BME280;74246;42.044;-91.642;2023-11-21T01:04:58;98991.06;;;11.18;62.01
82256;BME280;74246;42.044;-91.642;2023-11-21T01:05:31;98992.50;;;11.32;62.06
82256;BME280;74246;42.044;-91.642;2023-11-21T01:06:04;98988.09;;;10.96;62.51
82256;BME280;74246;42.044;-91.642;2023-11-21T01:06:39;98907.41;;;10.57;63.26
82256;BME280;74246;42.044;-91.642;2023-11-21T01:07:12;98985.56;;;11.26;62.85
82256;BME280;74246;42.044;-91.642;2023-11-21T01:07:45;98885.34;;;10.09;63.10
82256;BME280;74246;42.044;-91.642;2023-11-21T01:08:18;98984.81;;;10.82;63.54
82256;BME280;74246;42.044;-91.642;2023-11-21T01:08:50;98938.16;;;10.23;63.86
82256;BME280;74246;42.044;-91.642;2023-11-21T01:09:23;98989.06;;;10.76;64.09
82256;BME280;74246;42.044;-91.642;2023-11-21T01:09:56;98962.00;;;9.95;65.81
82256;BME280;74246;42.044;-91.642;2023-11-21T01:10:28;98989.84;;;9.63;67.48
82256;BME280;74246;42.044;-91.642;2023-11-21T01:11:02;98983.94;;;9.81;68.41
82256;BME280;74246;42.044;-91.642;2023-11-21T01:11:35;98992.22;;;10.35;67.16
82256;BME280;74246;42.044;-91.642;2023-11-21T01:12:09;98983.13;;;10.69;65.40
82256;BME280;74246;42.044;-91.642;2023-11-21T01:12:41;98986.66;;;11.18;63.40
82256;BME280;74246;42.044;-91.642;2023-11-21T01:13:14;98973.31;;;12.05;61.86
82256;BME280;74246;42.044;-91.642;2023-11-21T01:13:47;98973.13;;;12.31;60.70
82256;BME280;74246;42.044;-91.642;2023-11-21T01:14:20;98990.47;;;11.34;61.13
82256;BME280;74246;42.044;-91.642;2023-11-21T01:14:53;98982.00;;;11.02;63.13
82256;BME280;74246;42.044;-91.642;2023-11-21T01:15:25;98982.28;;;11.49;61.41
82256;BME280;74246;42.044;-91.642;2023-11-21T01:15:58;98981.34;;;11.43;61.45
82256;BME280;74246;42.044;-91.642;2023-11-21T01:16:30;98989.81;;;10.83;63.12
82256;BME280;74246;42.044;-91.642;2023-11-21T01:17:05;98988.69;;;10.22;63.94
82256;BME280;74246;42.044;-91.642;2023-11-21T01:17:38;98977.75;;;10.39;65.54
82256;BME280;74246;42.044;-91.642;2023-11-21T01:18:10;98974.47;;;10.94;62.89
82256;BME280;74246;42.044;-91.642;2023-11-21T01:18:43;98979.06;;;10.73;64.12
82256;BME280;74246;42.044;-91.642;2023-11-21T01:19:15;98974.16;;;10.83;63.46
82256;BME280;74246;42.044;-91.642;2023-11-21T01:19:48;98978.09;;;10.17;64.31
82256;BME280;74246;42.044;-91.642;2023-11-21T01:20:20;98982.63;;;10.28;65.20
82256;BME280;74246;42.044;-91.642;2023-11-21T01:20:53;98975.75;;;10.09;65.31
82256;BME280;74246;42.044;-91.642;2023-11-21T01:21:26;98966.56;;;10.57;66.75
82256;BME280;74246;42.044;-91.642;2023-11-21T01:22:00;98983.59;;;11.21;63.98
82256;BME280;74246;42.044;-91.642;2023-11-21T01:22:32;98974.75;;;11.41;62.59
82256;BME280;74246;42.044;-91.642;2023-11-21T01:23:05;98974.84;;;10.97;62.88
82256;BME280;74246;42.044;-91.642;2023-11-21T01:23:38;98975.41;;;10.81;63.74
82256;BME280;74246;42.044;-91.642;2023-11-21T01:24:10;98975.19;;;10.82;63.43
82256;BME280;74246;42.044;-91.642;2023-11-21T01:24:43;98972.22;;;10.79;63.28
82256;BME280;74246;42.044;-91.642;2023-11-21T01:25:15;98966.50;;;10.45;63.99
82256;BME280;74246;42.044;-91.642;2023-11-21T01:25:49;98969.09;;;10.88;64.82
82256;BME280;74246;42.044;-91.642;2023-11-21T01:26:23;98980.31;;;11.44;62.46
82256;BME280;74246;42.044;-91.642;2023-11-21T01:26:56;98973.88;;;11.47;61.49
82256;BME280;74246;42.044;-91.642;2023-11-21T01:27:29;98969.22;;;11.31;61.59
82256;BME280;74246;42.044;-91.642;2023-11-21T01:28:01;98962.00;;;10.27;63.46
82256;BME280;74246;42.044;-91.642;2023-11-21T01:28:34;98972.38;;;9.25;67.88
82256;BME280;74246;42.044;-91.642;2023-11-21T01:29:07;98977.00;;;9.16;70.05
82256;BME280;74246;42.044;-91.642;2023-11-21T01:29:39;98971.38;;;9.71;70.19
82256;BME280;74246;42.044;-91.642;2023-11-21T01:30:12;98956.97;;;10.25;68.17
82256;BME280;74246;42.044;-91.642;2023-11-21T01:30:44;98970.41;;;9.65;68.95
82256;BME280;74246;42.044;-91.642;2023-11-21T01:31:18;98958.91;;;9.80;68.52
82256;BME280;74246;42.044;-91.642;2023-11-21T01:31:51;98966.06;;;10.48;67.05
82256;BME280;74246;42.044;-91.642;2023-11-21T01:32:24;98963.53;;;11.22;64.52
82256;BME280;74246;42.044;-91.642;2023-11-21T01:32:56;98967.94;;;10.84;65.43
82256;BME280;74246;42.044;-91.642;2023-11-21T01:33:29;98974.94;;;10.84;65.57
82256;BME280;74246;42.044;-91.642;2023-11-21T01:34:02;98962.47;;;11.60;63.32
82256;BME280;74246;42.044;-91.642;2023-11-21T01:34:34;98968.56;;;11.84;61.22
82256;BME280;74246;42.044;-91.642;2023-11-21T01:35:07;98969.84;;;11.63;60.60
82256;BME280;74246;42.044;-91.642;2023-11-21T01:35:42;98967.66;;;11.29;60.95
82256;BME280;74246;42.044;-91.642;2023-11-21T01:36:15;98957.00;;;11.31;61.48
82256;BME280;74246;42.044;-91.642;2023-11-21T01:36:47;98968.16;;;11.38;61.01
82256;BME280;74246;42.044;-91.642;2023-11-21T01:37:20;98968.06;;;11.26;60.79
82256;BME280;74246;42.044;-91.642;2023-11-21T01:37:53;98966.88;;;11.59;60.83
82256;BME280;74246;42.044;-91.642;2023-11-21T01:38:26;98962.88;;;11.87;60.56
82256;BME280;74246;42.044;-91.642;2023-11-21T01:38:59;98957.28;;;10.86;61.22
82256;BME280;74246;42.044;-91.642;2023-11-21T01:39:32;98966.53;;;11.37;61.38
82256;BME280;74246;42.044;-91.642;2023-11-21T01:40:05;98968.19;;;11.50;59.77
82256;BME280;74246;42.044;-91.642;2023-11-21T01:40:46;98961.84;;;11.88;59.81
82256;BME280;74246;42.044;-91.642;2023-11-21T01:41:19;98944.75;;;11.62;59.78
82256;BME280;74246;42.044;-91.642;2023-11-21T01:41:52;98959.47;;;11.86;59.54
82256;BME280;74246;42.044;-91.642;2023-11-21T01:42:25;98956.84;;;12.17;59.19
82256;BME280;74246;42.044;-91.642;2023-11-21T01:42:57;98959.47;;;11.26;60.75
82256;BME280;74246;42.044;-91.642;2023-11-21T01:43:30;98963.78;;;11.51;61.14
82256;BME280;74246;42.044;-91.642;2023-11-21T01:44:04;98948.88;;;11.21;60.71
82256;BME280;74246;42.044;-91.642;2023-11-21T01:44:40;98954.41;;;11.61;60.05
82256;BME280;74246;42.044;-91.642;2023-11-21T01:45:13;98818.63;;;10.27;60.64
82256;BME280;74246;42.044;-91.642;2023-11-21T01:45:46;98960.53;;;11.00;60.46
82256;BME280;74246;42.044;-91.642;2023-11-21T01:46:19;98957.19;;;10.93;61.88
82256;BME280;74246;42.044;-91.642;2023-11-21T01:46:52;98961.63;;;11.10;61.80
82256;BME280;74246;42.044;-91.642;2023-11-21T01:47:26;98952.66;;;11.55;60.67
82256;BME280;74246;42.044;-91.642;2023-11-21T01:47:59;98955.84;;;11.57;60.58
82256;BME280;74246;42.044;-91.642;2023-11-21T01:48:33;98949.91;;;12.11;58.85
82256;BME280;74246;42.044;-91.642;2023-11-21T01:49:06;98949.13;;;12.46;57.80
82256;BME280;74246;42.044;-91.642;2023-11-21T01:49:44;98952.22;;;12.66;57.11
82256;BME280;74246;42.044;-91.642;2023-11-21T01:50:18;98945.06;;;12.50;56.98
82256;BME280;74246;42.044;-91.642;2023-11-21T01:50:51;98953.66;;;12.15;57.18
82256;BME280;74246;42.044;-91.642;2023-11-21T01:51:23;98954.59;;;12.32;57.48
82256;BME280;74246;42.044;-91.642;2023-11-21T01:51:56;98954.25;;;12.29;57.72
82256;BME280;74246;42.044;-91.642;2023-11-21T01:52:29;98950.13;;;11.79;58.47
82256;BME280;74246;42.044;-91.642;2023-11-21T01:53:02;98953.25;;;12.53;57.77
82256;BME280;74246;42.044;-91.642;2023-11-21T01:53:35;98946.66;;;12.39;56.72
82256;BME280;74246;42.044;-91.642;2023-11-21T01:54:08;98945.59;;;12.16;57.34
82256;BME280;74246;42.044;-91.642;2023-11-21T01:54:49;98933.84;;;11.95;57.97
82256;BME280;74246;42.044;-91.642;2023-11-21T01:55:21;98950.13;;;11.79;58.55
82256;BME280;74246;42.044;-91.642;2023-11-21T01:55:59;98946.44;;;11.38;59.56
82256;BME280;74246;42.044;-91.642;2023-11-21T01:56:32;98949.53;;;11.65;59.40
82256;BME280;74246;42.044;-91.642;2023-11-21T01:57:06;98951.28;;;11.83;58.96
82256;BME280;74246;42.044;-91.642;2023-11-21T01:57:39;98951.03;;;11.73;58.87
82256;BME280;74246;42.044;-91.642;2023-11-21T01:58:11;98953.41;;;11.44;58.95
82256;BME280;74246;42.044;-91.642;2023-11-21T01:58:48;98950.38;;;11.47;59.65
82256;BME280;74246;42.044;-91.642;2023-11-21T01:59:21;98951.72;;;11.01;60.47
82256;BME280;74246;42.044;-91.642;2023-11-21T01:59:54;98915.34;;;11.18;60.29
82256;BME280;74246;42.044;-91.642;2023-11-21T02:00:28;98946.59;;;11.43;59.83
82256;BME280;74246;42.044;-91.642;2023-11-21T02:01:01;98950.22;;;11.42;59.96
82256;BME280;74246;42.044;-91.642;2023-11-21T02:01:34;98947.13;;;11.33;59.58
82256;BME280;74246;42.044;-91.642;2023-11-21T02:02:07;98952.50;;;10.83;61.71
82256;BME280;74246;42.044;-91.642;2023-11-21T02:02:40;98944.09;;;10.81;61.63
82256;BME280;74246;42.044;-91.642;2023-11-21T02:03:12;98955.19;;;11.13;61.74
82256;BME280;74246;42.044;-91.642;2023-11-21T02:03:45;98943.50;;;10.97;61.74
82256;BME280;74246;42.044;-91.642;2023-11-21T02:04:18;98947.88;;;11.22;61.18
82256;BME280;74246;42.044;-91.642;2023-11-21T02:04:51;98938.50;;;10.96;61.69
82256;BME280;74246;42.044;-91.642;2023-11-21T02:05:23;98938.28;;;10.79;62.14
82256;BME280;74246;42.044;-91.642;2023-11-21T02:05:58;98937.63;;;10.83;62.17
82256;BME280;74246;42.044;-91.642;2023-11-21T02:06:30;98941.41;;;11.06;61.82
82256;BME280;74246;42.044;-91.642;2023-11-21T02:07:03;98735.09;;;9.03;62.53
82256;BME280;74246;42.044;-91.642;2023-11-21T02:07:40;98944.84;;;10.12;63.94
82256;BME280;74246;42.044;-91.642;2023-11-21T02:08:14;98945.53;;;10.01;64.68
82256;BME280;74246;42.044;-91.642;2023-11-21T02:08:47;98940.09;;;10.28;64.87
82256;BME280;74246;42.044;-91.642;2023-11-21T02:09:26;98946.50;;;10.82;63.15
82256;BME280;74246;42.044;-91.642;2023-11-21T02:09:59;98943.56;;;10.72;62.50
82256;BME280;74246;42.044;-91.642;2023-11-21T02:10:31;98822.47;;;9.74;62.69
82256;BME280;74246;42.044;-91.642;2023-11-21T02:11:04;98939.69;;;10.38;64.19
82256;BME280;74246;42.044;-91.642;2023-11-21T02:11:37;98943.25;;;10.62;62.98
82256;BME280;74246;42.044;-91.642;2023-11-21T02:12:11;98936.50;;;10.29;63.36
82256;BME280;74246;42.044;-91.642;2023-11-21T02:12:44;98938.34;;;10.54;63.91
82256;BME280;74246;42.044;-91.642;2023-11-21T02:13:16;98940.88;;;10.60;63.77
82256;BME280;74246;42.044;-91.642;2023-11-21T02:13:49;98947.34;;;10.95;62.96
82256;BME280;74246;42.044;-91.642;2023-11-21T02:14:22;98941.34;;;11.61;61.05
82256;BME280;74246;42.044;-91.642;2023-11-21T02:14:55;98931.53;;;11.57;59.39
82256;BME280;74246;42.044;-91.642;2023-11-21T02:15:28;98940.44;;;11.67;59.55
82256;BME280;74246;42.044;-91.642;2023-11-21T02:16:01;98798.75;;;10.26;59.63
82256;BME280;74246;42.044;-91.642;2023-11-21T02:16:34;98940.38;;;11.07;60.20
82256;BME280;74246;42.044;-91.642;2023-11-21T02:17:07;98941.59;;;10.67;61.83
82256;BME280;74246;42.044;-91.642;2023-11-21T02:17:41;98945.25;;;10.41;62.60
82256;BME280;74246;42.044;-91.642;2023-11-21T02:18:18;98939.34;;;10.71;62.70
82256;BME280;74246;42.044;-91.642;2023-11-21T02:18:51;98947.78;;;10.92;61.80
82256;BME280;74246;42.044;-91.642;2023-11-21T02:19:24;98936.53;;;10.73;61.02
82256;BME280;74246;42.044;-91.642;2023-11-21T02:20:02;98940.59;;;10.87;61.66
82256;BME280;74246;42.044;-91.642;2023-11-21T02:20:35;98942.41;;;10.68;61.81
82256;BME280;74246;42.044;-91.642;2023-11-21T02:21:11;98954.06;;;10.84;61.72
82256;BME280;74246;42.044;-91.642;2023-11-21T02:21:43;98943.16;;;10.75;61.88
82256;BME280;74246;42.044;-91.642;2023-11-21T02:22:18;98945.34;;;10.97;61.55
82256;BME280;74246;42.044;-91.642;2023-11-21T02:22:53;98942.22;;;11.55;59.90
82256;BME280;74246;42.044;-91.642;2023-11-21T02:23:33;98931.25;;;11.77;58.86
82256;BME280;74246;42.044;-91.642;2023-11-21T02:24:06;98945.69;;;11.19;59.55
82256;BME280;74246;42.044;-91.642;2023-11-21T02:24:41;98904.44;;;10.28;60.96
82256;BME280;74246;42.044;-91.642;2023-11-21T02:25:14;98941.56;;;10.49;61.87
82256;BME280;74246;42.044;-91.642;2023-11-21T02:25:47;98936.19;;;10.44;62.64
82256;BME280;74246;42.044;-91.642;2023-11-21T02:26:20;98940.72;;;10.30;62.80
82256;BME280;74246;42.044;-91.642;2023-11-21T02:26:52;98935.72;;;10.28;63.25
82256;BME280;74246;42.044;-91.642;2023-11-21T02:27:25;98943.38;;;10.23;63.00
82256;BME280;74246;42.044;-91.642;2023-11-21T02:28:01;98940.03;;;10.66;62.41
82256;BME280;74246;42.044;-91.642;2023-11-21T02:28:34;98931.31;;;10.73;62.09
82256;BME280;74246;42.044;-91.642;2023-11-21T02:29:07;98945.66;;;10.82;61.74
82256;BME280;74246;42.044;-91.642;2023-11-21T02:29:43;98940.31;;;10.33;62.41
82256;BME280;74246;42.044;-91.642;2023-11-21T02:30:15;98957.88;;;9.81;64.19
82256;BME280;74246;42.044;-91.642;2023-11-21T02:30:48;98949.66;;;10.16;64.54
82256;BME280;74246;42.044;-91.642;2023-11-21T02:31:27;98951.63;;;9.88;63.58
82256;BME280;74246;42.044;-91.642;2023-11-21T02:32:00;98946.66;;;10.12;64.85
82256;BME280;74246;42.044;-91.642;2023-11-21T02:32:33;98951.22;;;10.48;63.61
82256;BME280;74246;42.044;-91.642;2023-11-21T02:33:19;98812.56;;;10.33;61.34
82256;BME280;74246;42.044;-91.642;2023-11-21T02:33:52;98956.56;;;11.16;60.64
82256;BME280;74246;42.044;-91.642;2023-11-21T02:34:25;98911.63;;;10.95;59.61
82256;BME280;74246;42.044;-91.642;2023-11-21T02:34:57;98945.81;;;11.24;60.05
82256;BME280;74246;42.044;-91.642;2023-11-21T02:35:33;98936.63;;;11.52;59.32
82256;BME280;74246;42.044;-91.642;2023-11-21T02:36:05;98942.41;;;10.86;60.67
82256;BME280;74246;42.044;-91.642;2023-11-21T02:36:38;98944.47;;;10.41;62.18
82256;BME280;74246;42.044;-91.642;2023-11-21T02:37:11;98945.09;;;10.36;63.33
82256;BME280;74246;42.044;-91.642;2023-11-21T02:37:44;98951.56;;;10.96;62.43
82256;BME280;74246;42.044;-91.642;2023-11-21T02:38:17;98952.72;;;11.00;61.25
82256;BME280;74246;42.044;-91.642;2023-11-21T02:38:50;98950.97;;;10.94;61.15
82256;BME280;74246;42.044;-91.642;2023-11-21T02:39:22;98949.06;;;11.38;60.35
82256;BME280;74246;42.044;-91.642;2023-11-21T02:39:56;98946.78;;;11.11;60.14
82256;BME280;74246;42.044;-91.642;2023-11-21T02:40:29;98944.88;;;11.00;61.50
82256;BME280;74246;42.044;-91.642;2023-11-21T02:41:02;98947.34;;;10.76;60.86
82256;BME280;74246;42.044;-91.642;2023-11-21T02:41:39;98947.22;;;10.89;61.54
82256;BME280;74246;42.044;-91.642;2023-11-21T02:42:12;98943.22;;;10.87;61.20
82256;BME280;74246;42.044;-91.642;2023-11-21T02:42:44;98947.91;;;10.78;61.82
82256;BME280;74246;42.044;-91.642;2023-11-21T02:43:17;98940.66;;;11.36;61.12
82256;BME280;74246;42.044;-91.642;2023-11-21T02:43:49;98944.53;;;11.15;59.74
82256;BME280;74246;42.044;-91.642;2023-11-21T02:44:22;98951.25;;;10.67;60.87
82256;BME280;74246;42.044;-91.642;2023-11-21T02:44:55;98939.56;;;10.69;62.35
82256;BME280;74246;42.044;-91.642;2023-11-21T02:45:29;98948.22;;;10.70;62.11
82256;BME280;74246;42.044;-91.642;2023-11-21T02:46:01;98942.47;;;10.61;62.28
82256;BME280;74246;42.044;-91.642;2023-11-21T02:46:34;98948.47;;;10.62;62.15
82256;BME280;74246;42.044;-91.642;2023-11-21T02:47:08;98951.75;;;10.32;62.88
82256;BME280;74246;42.044;-91.642;2023-11-21T02:47:41;98866.16;;;9.72;63.18
82256;BME280;74246;42.044;-91.642;2023-11-21T02:48:14;98687.97;;;8.40;64.02
82256;BME280;74246;42.044;-91.642;2023-11-21T02:48:46;98952.50;;;10.07;64.71
82256;BME280;74246;42.044;-91.642;2023-11-21T02:49:19;98934.53;;;9.67;65.45
82256;BME280;74246;42.044;-91.642;2023-11-21T02:49:51;98946.50;;;10.07;65.66
82256;BME280;74246;42.044;-91.642;2023-11-21T02:50:24;98945.94;;;10.30;64.46
82256;BME280;74246;42.044;-91.642;2023-11-21T02:50:57;98852.84;;;9.62;64.56
82256;BME280;74246;42.044;-91.642;2023-11-21T02:51:35;98949.47;;;9.79;65.08
82256;BME280;74246;42.044;-91.642;2023-11-21T02:52:07;98952.66;;;8.97;68.23